Time;durP1;ratioP1;P1;durP2;ratioP2;P2;SDS_P1;SDS_P2;PMS_P1;PMS_P2;Temp;Humidity;BMP_temperature;BMP_pressure;BME280_temperature;BME280_humidity;BME280_pressure;Samples;Min_cycle;Max_cycle;Signal;HPM_P1;HPM_P2
2023/09/12 00:00:53;;;;;;;19.17;12.38;;;;;;;22.32;59.54;100042.72;5050584;28;20205;-66
2023/09/12 00:03:22;;;;;;;17.92;11.93;;;;;;;22.32;59.40;100042.72;5050773;28;20579;-65
2023/09/12 00:05:54;;;;;;;14.45;12.95;;;;;;;22.29;59.64;100045.50;5041983;28;20206;-68
2023/09/12 00:08:22;;;;;;;16.40;12.38;;;;;;;22.28;59.70;100038.59;5043666;28;20236;-65
2023/09/12 00:11:01;;;;;;;15.63;11.43;;;;;;;22.29;59.14;100042.88;5049528;28;20198;-66
2023/09/12 00:13:31;;;;;;;14.60;11.80;;;;;;;22.33;58.03;100047.00;5050052;28;20201;-66
2023/09/12 00:15:59;;;;;;;15.60;11.80;;;;;;;22.33;57.36;100041.75;5054371;28;20240;-66
2023/09/12 00:18:28;;;;;;;15.13;11.80;;;;;;;22.32;57.11;100040.09;5054588;28;20672;-66
2023/09/12 00:20:56;;;;;;;17.38;12.18;;;;;;;22.35;57.97;100039.88;5054312;28;20202;-66
2023/09/12 00:23:24;;;;;;;14.82;12.38;;;;;;;22.33;58.15;100036.50;5054291;28;20293;-67
2023/09/12 00:25:52;;;;;;;15.80;12.23;;;;;;;22.26;58.45;100027.31;5039998;28;20206;-67
2023/09/12 00:28:20;;;;;;;14.73;11.48;;;;;;;22.22;58.80;100036.31;5054318;28;20197;-66
2023/09/12 00:30:50;;;;;;;17.52;11.85;;;;;;;22.21;58.81;100035.47;5053936;28;20241;-67
2023/09/12 00:33:18;;;;;;;15.13;11.90;;;;;;;22.14;59.23;100048.13;5047606;28;20234;-66
2023/09/12 00:35:46;;;;;;;17.70;12.43;;;;;;;22.08;59.28;100043.19;5054371;28;20548;-66
2023/09/12 00:38:15;;;;;;;15.23;12.65;;;;;;;22.06;59.85;100050.31;5051410;28;20240;-66
2023/09/12 00:40:43;;;;;;;13.77;11.93;;;;;;;22.04;59.73;100036.44;5042228;28;20237;-67
2023/09/12 00:43:11;;;;;;;17.65;12.35;;;;;;;22.03;59.35;100040.00;5047880;28;20195;-65
2023/09/12 00:45:39;;;;;;;16.33;11.98;;;;;;;22.05;59.40;100045.16;5033923;28;20210;-67
2023/09/12 00:48:09;;;;;;;14.10;12.00;;;;;;;22.06;59.42;100047.69;5036408;28;20203;-67
2023/09/12 00:50:39;;;;;;;17.80;12.60;;;;;;;22.06;58.83;100041.59;5053810;28;20206;-68
2023/09/12 00:53:07;;;;;;;16.20;11.48;;;;;;;22.09;58.37;100041.41;5038053;28;20202;-68
2023/09/12 00:55:38;;;;;;;14.35;12.27;;;;;;;22.05;58.71;100043.38;5033817;28;20691;-67
2023/09/12 00:58:07;;;;;;;15.77;12.15;;;;;;;22.03;59.00;100034.75;5048452;28;20304;-66
2023/09/12 01:00:35;;;;;;;15.50;12.60;;;;;;;22.03;59.20;100045.25;5053850;28;20250;-68
2023/09/12 01:03:04;;;;;;;13.30;11.88;;;;;;;22.02;59.25;100038.31;5053744;28;20206;-68
2023/09/12 01:05:34;;;;;;;16.13;12.32;;;;;;;22.00;59.35;100029.69;5053523;28;20209;-68
2023/09/12 01:08:02;;;;;;;14.75;11.63;;;;;;;22.01;59.01;100030.53;5051750;28;20202;-68
2023/09/12 01:10:30;;;;;;;14.25;10.68;;;;;;;22.03;58.64;100028.66;5053663;28;20692;-69
2023/09/12 01:12:59;;;;;;;13.02;11.13;;;;;;;22.03;57.31;100026.88;5045005;28;20202;-67
2023/09/12 01:15:27;;;;;;;12.65;11.40;;;;;;;22.04;57.69;100033.81;5053699;28;20656;-68
2023/09/12 01:17:55;;;;;;;14.90;11.80;;;;;;;22.05;58.01;100029.41;5047960;28;20253;-68
2023/09/12 01:20:28;;;;;;;16.75;11.77;;;;;;;22.02;58.07;100030.44;5053010;28;20206;-69
2023/09/12 01:23:08;;;;;;;13.57;11.50;;;;;;;22.03;58.18;100033.91;5043822;28;20218;-68
2023/09/12 01:26:24;;;;;;;14.90;12.32;;;;;;;22.01;58.49;100033.97;5037095;28;20246;-68
2023/09/12 01:28:56;;;;;;;15.85;11.45;;;;;;;22.00;58.73;100027.06;4983700;28;20686;-68
2023/09/12 01:31:25;;;;;;;16.55;11.40;;;;;;;21.87;58.94;100031.31;5033837;28;20209;-71
2023/09/12 01:33:56;;;;;;;14.23;11.88;;;;;;;21.67;59.47;100043.00;5046360;28;20214;-68
2023/09/12 01:36:24;;;;;;;13.65;12.15;;;;;;;21.55;59.72;100036.69;5053135;28;20692;-68
2023/09/12 01:38:52;;;;;;;13.68;12.25;;;;;;;21.55;59.88;100039.28;5051572;28;20210;-67
2023/09/12 01:41:20;;;;;;;12.98;11.55;;;;;;;21.59;59.94;100050.44;5052994;28;20665;-69
2023/09/12 01:43:51;;;;;;;18.77;11.45;;;;;;;21.55;60.24;100044.53;5053126;28;20684;-67
2023/09/12 01:46:21;;;;;;;15.38;12.57;;;;;;;21.53;60.13;100046.38;5038911;28;20249;-69
2023/09/12 01:48:52;;;;;;;13.82;11.95;;;;;;;21.50;60.74;100038.69;5052706;28;20209;-69
2023/09/12 01:51:22;;;;;;;14.93;12.50;;;;;;;21.49;60.87;100042.25;5052739;28;20315;-67
2023/09/12 01:53:51;;;;;;;12.32;11.13;;;;;;;21.52;60.89;100043.88;5052663;28;20202;-68
2023/09/12 01:56:20;;;;;;;14.88;11.40;;;;;;;21.55;61.21;100043.69;5052467;28;20213;-69
2023/09/12 01:58:48;;;;;;;14.93;12.00;;;;;;;21.53;61.14;100041.16;5052500;28;20213;-70
2023/09/12 02:01:16;;;;;;;15.80;12.55;;;;;;;21.52;61.35;100047.34;5052438;28;20344;-70
2023/09/12 02:03:46;;;;;;;13.60;11.55;;;;;;;21.50;61.75;100046.56;5052292;28;20211;-69
2023/09/12 02:06:14;;;;;;;14.43;11.38;;;;;;;21.46;61.97;100042.44;5052712;28;20293;-68
2023/09/12 02:08:42;;;;;;;14.75;11.90;;;;;;;21.40;62.28;100045.41;5050039;28;20206;-68
2023/09/12 02:11:11;;;;;;;13.82;11.05;;;;;;;21.37;62.46;100048.19;5047572;28;20658;-70
2023/09/12 02:13:38;;;;;;;15.20;11.05;;;;;;;21.34;62.53;100035.25;5049267;28;20661;-68
2023/09/12 02:16:08;;;;;;;15.60;12.00;;;;;;;21.30;63.01;100041.59;5043046;28;20211;-69
2023/09/12 02:18:36;;;;;;;15.02;12.23;;;;;;;21.26;62.86;100040.06;5047841;28;20213;-69
2023/09/12 02:21:06;;;;;;;16.95;12.88;;;;;;;21.22;63.12;100031.53;5052424;28;20646;-69
2023/09/12 02:23:34;;;;;;;14.25;12.18;;;;;;;21.17;64.00;100039.66;5051763;28;20212;-70
2023/09/12 02:26:02;;;;;;;15.07;12.73;;;;;;;21.13;64.31;100040.72;5037945;28;20208;-68
2023/09/12 02:28:30;;;;;;;15.10;12.02;;;;;;;21.11;64.44;100039.97;5052053;28;20209;-68
2023/09/12 02:30:58;;;;;;;14.85;12.73;;;;;;;21.11;64.18;100036.53;5052008;28;20688;-68
2023/09/12 02:33:26;;;;;;;15.82;12.30;;;;;;;21.12;64.27;100031.19;5044732;28;20554;-68
2023/09/12 02:35:54;;;;;;;13.07;11.45;;;;;;;21.13;64.32;100042.50;5051890;28;20228;-68
2023/09/12 02:38:23;;;;;;;14.68;12.02;;;;;;;21.10;64.44;100034.81;5050126;28;20242;-69
2023/09/12 02:40:51;;;;;;;13.88;11.50;;;;;;;21.07;64.38;100043.72;5051885;28;20695;-69
2023/09/12 02:43:19;;;;;;;15.88;11.38;;;;;;;21.04;64.53;100041.25;5037843;28;20657;-69
2023/09/12 02:45:47;;;;;;;17.40;11.73;;;;;;;21.05;64.50;100042.09;5052086;28;20268;-70
2023/09/12 02:48:15;;;;;;;15.77;11.60;;;;;;;21.04;64.36;100043.88;5037608;28;20210;-68
2023/09/12 02:50:43;;;;;;;15.15;11.63;;;;;;;21.01;64.33;100037.94;5051841;28;20241;-70
2023/09/12 02:53:11;;;;;;;16.90;11.07;;;;;;;20.97;64.64;100037.28;5049120;28;20202;-68
2023/09/12 02:55:42;;;;;;;17.40;12.45;;;;;;;20.93;65.21;100046.22;5040280;28;20289;-69
2023/09/12 02:58:10;;;;;;;17.02;13.15;;;;;;;20.86;65.72;100037.00;5051421;28;20221;-68
2023/09/12 03:00:39;;;;;;;16.90;12.38;;;;;;;20.79;66.01;100039.13;5043859;28;20210;-70
2023/09/12 03:03:09;;;;;;;15.98;12.38;;;;;;;20.79;66.21;100040.88;5031909;28;20212;-69
2023/09/12 03:05:37;;;;;;;13.98;12.00;;;;;;;20.79;66.12;100046.13;5045010;28;20646;-68
2023/09/12 03:08:05;;;;;;;14.50;11.70;;;;;;;20.80;66.06;100040.78;5032471;28;20199;-68
2023/09/12 03:10:33;;;;;;;12.70;11.40;;;;;;;20.81;65.97;100041.66;5045778;28;20210;-69
2023/09/12 03:13:03;;;;;;;14.38;12.27;;;;;;;20.79;65.80;100031.25;5034945;28;20210;-70
2023/09/12 03:15:30;;;;;;;13.50;11.57;;;;;;;20.80;65.57;100039.94;5051336;28;20206;-70
2023/09/12 03:17:58;;;;;;;14.07;12.27;;;;;;;20.76;65.44;100036.66;5051456;28;20202;-68
2023/09/12 03:20:27;;;;;;;14.90;12.27;;;;;;;20.75;65.96;100037.59;5051528;28;20774;-66
2023/09/12 03:22:54;;;;;;;16.92;11.75;;;;;;;20.75;65.95;100038.44;5051545;28;20233;-64
2023/09/12 03:25:22;;;;;;;23.55;13.02;;;;;;;20.67;65.88;100040.63;5037261;28;20242;-65
2023/09/12 03:27:50;;;;;;;15.15;12.75;;;;;;;20.60;66.41;100043.66;5048918;28;20252;-65
2023/09/12 03:30:21;;;;;;;15.38;12.10;;;;;;;20.55;66.81;100043.91;5051429;28;20610;-65
2023/09/12 03:32:49;;;;;;;15.98;12.48;;;;;;;20.53;67.18;100037.03;5040989;28;20244;-65
2023/09/12 03:35:17;;;;;;;16.05;13.27;;;;;;;20.52;67.74;100048.44;5051435;28;20206;-68
2023/09/12 03:37:45;;;;;;;22.60;13.60;;;;;;;20.50;67.98;100048.50;5036960;28;20234;-70
2023/09/12 03:40:15;;;;;;;16.05;14.07;;;;;;;20.49;68.02;100044.19;5051406;28;20287;-65
2023/09/12 03:42:43;;;;;;;16.70;12.85;;;;;;;20.50;68.30;100048.50;5051203;28;20648;-65
2023/09/12 03:45:12;;;;;;;16.65;12.88;;;;;;;20.53;68.31;100052.75;5053391;28;20206;-64
2023/09/12 03:47:42;;;;;;;18.08;13.10;;;;;;;20.55;67.69;100049.13;5055609;28;20660;-64
2023/09/12 03:50:11;;;;;;;15.65;11.50;;;;;;;20.57;67.71;100055.13;5041035;28;20208;-65
2023/09/12 03:52:39;;;;;;;16.05;12.35;;;;;;;20.57;67.64;100056.91;5055137;28;20209;-66
2023/09/12 03:55:09;;;;;;;13.93;12.45;;;;;;;20.57;67.37;100055.13;5050912;28;20194;-65
2023/09/12 03:57:37;;;;;;;15.88;12.98;;;;;;;20.55;67.44;100051.75;5045675;28;20399;-64
2023/09/12 04:00:07;;;;;;;16.02;12.80;;;;;;;20.55;67.50;100057.00;5054782;28;20224;-66
2023/09/12 04:02:36;;;;;;;15.68;12.18;;;;;;;20.52;67.53;100056.31;5053389;28;20205;-67
2023/09/12 04:05:05;;;;;;;14.75;12.90;;;;;;;20.53;67.75;100053.59;5054699;28;20206;-66
2023/09/12 04:07:33;;;;;;;18.15;12.68;;;;;;;20.55;67.37;100056.16;5046406;28;20256;-66
2023/09/12 04:10:02;;;;;;;17.60;12.73;;;;;;;20.53;67.83;100056.22;5049872;28;20248;-65
2023/09/12 04:12:30;;;;;;;17.50;12.52;;;;;;;20.52;67.58;100059.75;5046493;28;20209;-64
2023/09/12 04:14:58;;;;;;;16.00;13.15;;;;;;;20.50;67.81;100058.97;5054862;28;20206;-67
2023/09/12 04:17:26;;;;;;;19.05;12.73;;;;;;;20.50;67.63;100057.22;5054531;28;20288;-65
2023/09/12 04:19:54;;;;;;;20.35;12.93;;;;;;;20.50;67.91;100058.97;5055202;28;20259;-66
2023/09/12 04:22:24;;;;;;;20.50;12.73;;;;;;;20.51;67.68;100055.47;5054558;28;20681;-65
2023/09/12 04:24:52;;;;;;;18.75;13.43;;;;;;;20.45;67.80;100056.59;5045655;28;20771;-66
2023/09/12 04:27:20;;;;;;;20.58;13.05;;;;;;;20.45;67.86;100060.97;5048379;28;20206;-65
2023/09/12 04:29:48;;;;;;;19.15;13.45;;;;;;;20.44;68.01;100057.53;5039994;28;20201;-65
2023/09/12 04:32:22;;;;;;;19.30;13.90;;;;;;;20.46;68.32;100057.44;5042161;28;20210;-65
2023/09/12 04:34:51;;;;;;;19.67;13.15;;;;;;;20.49;68.08;100058.13;5053594;28;20206;-66
2023/09/12 04:37:19;;;;;;;19.70;12.95;;;;;;;20.52;68.11;100062.38;5054219;28;20245;-68
2023/09/12 04:39:49;;;;;;;15.95;13.63;;;;;;;20.53;67.95;100066.69;5054168;28;20256;-65
2023/09/12 04:42:17;;;;;;;18.92;13.65;;;;;;;20.54;68.12;100070.13;5048362;28;20223;-65
2023/09/12 04:44:45;;;;;;;21.92;14.65;;;;;;;20.54;68.04;100070.97;5038167;28;20202;-66
2023/09/12 04:47:13;;;;;;;21.33;13.88;;;;;;;20.57;68.01;100068.22;5043292;28;20255;-66
2023/09/12 04:49:41;;;;;;;20.63;13.65;;;;;;;20.59;67.83;100066.38;5039767;28;20198;-66
2023/09/12 04:52:09;;;;;;;23.27;14.88;;;;;;;20.59;68.09;100063.75;5053314;28;20210;-69
2023/09/12 04:54:37;;;;;;;20.63;15.52;;;;;;;20.60;67.57;100065.44;5028708;28;20203;-66
2023/09/12 04:57:07;;;;;;;20.60;14.73;;;;;;;20.62;67.76;100068.84;5032903;28;20248;-66
2023/09/12 04:59:35;;;;;;;27.00;16.23;;;;;;;20.64;67.51;100066.97;5034183;28;20242;-66
2023/09/12 05:02:03;;;;;;;20.30;14.57;;;;;;;20.67;67.60;100065.97;5053193;28;20202;-66
2023/09/12 05:04:31;;;;;;;21.77;14.70;;;;;;;20.70;67.61;100069.25;5053451;28;20202;-64
2023/09/12 05:07:00;;;;;;;24.27;14.57;;;;;;;20.78;67.56;100068.00;5039267;28;20202;-65
2023/09/12 05:09:27;;;;;;;20.98;15.10;;;;;;;20.77;67.62;100072.41;5053510;28;20202;-66
2023/09/12 05:11:55;;;;;;;24.70;15.15;;;;;;;20.78;67.42;100068.00;5044652;28;20230;-65
2023/09/12 05:14:25;;;;;;;21.13;14.60;;;;;;;20.79;67.77;100069.69;5051992;28;20656;-63
2023/09/12 05:16:53;;;;;;;21.52;14.82;;;;;;;20.83;67.39;100074.69;5053123;28;20229;-65
2023/09/12 05:19:21;;;;;;;25.20;17.10;;;;;;;20.87;67.10;100073.59;5053582;28;20681;-66
2023/09/12 05:21:49;;;;;;;29.05;16.58;;;;;;;20.92;67.16;100070.75;5053434;28;20214;-67
2023/09/12 05:24:17;;;;;;;36.13;17.33;;;;;;;20.99;66.88;100072.09;5044756;28;20600;-66
2023/09/12 05:26:47;;;;;;;26.30;16.80;;;;;;;21.07;66.56;100075.16;5042226;28;20300;-67
2023/09/12 05:29:15;;;;;;;26.13;16.60;;;;;;;21.17;66.43;100078.97;5039507;28;20276;-67
2023/09/12 05:31:45;;;;;;;20.48;16.30;;;;;;;21.24;66.27;100079.44;5052671;28;20263;-66
2023/09/12 05:34:13;;;;;;;24.15;17.13;;;;;;;21.30;65.61;100081.72;5047383;28;20206;-65
2023/09/12 05:36:41;;;;;;;22.88;16.23;;;;;;;21.38;65.33;100086.59;5052910;28;20209;-67
2023/09/12 05:39:09;;;;;;;30.83;17.05;;;;;;;21.44;65.24;100086.25;5040300;28;20230;-67
2023/09/12 05:41:37;;;;;;;24.10;17.17;;;;;;;21.53;65.04;100090.13;5052049;28;20212;-70
2023/09/12 05:44:05;;;;;;;27.42;17.40;;;;;;;21.62;64.51;100087.00;5041650;28;20249;-70
2023/09/12 05:46:33;;;;;;;23.98;15.95;;;;;;;21.73;63.92;100083.75;5047114;28;20242;-72
2023/09/12 05:49:04;;;;;;;26.27;17.83;;;;;;;21.83;63.57;100084.91;5048308;28;20565;-71
2023/09/12 05:51:34;;;;;;;28.27;17.70;;;;;;;21.98;63.03;100084.00;5052677;28;20198;-70
2023/09/12 05:54:04;;;;;;;32.17;16.63;;;;;;;22.07;62.24;100086.13;5053095;28;20620;-69
2023/09/12 05:56:33;;;;;;;25.98;16.70;;;;;;;22.17;61.41;100075.97;5052951;28;20224;-71
2023/09/12 05:59:01;;;;;;;22.25;16.10;;;;;;;22.28;60.89;100077.97;5052773;28;20206;-73
2023/09/12 06:01:29;;;;;;;26.00;16.02;;;;;;;22.33;60.02;100084.59;5052457;28;20265;-70
2023/09/12 06:03:57;;;;;;;22.33;16.30;;;;;;;22.42;59.66;100083.19;5046190;28;20234;-69
2023/09/12 06:06:27;;;;;;;24.33;15.52;;;;;;;22.47;59.24;100081.16;5032832;28;20214;-70
2023/09/12 06:08:55;;;;;;;35.05;15.82;;;;;;;22.55;58.91;100085.94;5052963;28;20213;-72
2023/09/12 06:11:23;;;;;;;23.77;15.00;;;;;;;22.63;58.24;100084.53;5048388;28;20198;-72
2023/09/12 06:13:51;;;;;;;24.90;15.70;;;;;;;22.71;58.04;100091.94;5046471;28;20609;-70
2023/09/12 06:16:19;;;;;;;20.23;14.60;;;;;;;22.77;57.49;100090.75;5043678;28;20301;-72
2023/09/12 06:18:48;;;;;;;20.48;14.55;;;;;;;22.82;57.15;100092.13;5046471;28;20538;-71
2023/09/12 06:21:17;;;;;;;26.33;14.40;;;;;;;22.92;56.69;100092.44;5041988;28;20304;-69
2023/09/12 06:23:46;;;;;;;26.65;14.57;;;;;;;23.14;56.16;100092.78;5047358;28;20750;-69
2023/09/12 06:26:14;;;;;;;28.52;13.70;;;;;;;23.52;55.54;100097.38;5037058;28;20209;-71
2023/09/12 06:28:42;;;;;;;23.50;13.88;;;;;;;23.94;53.91;100092.94;5052634;28;20212;-70
2023/09/12 06:31:10;;;;;;;30.17;13.45;;;;;;;24.37;52.88;100095.28;5052259;28;20216;-69
2023/09/12 06:33:39;;;;;;;21.88;12.63;;;;;;;24.77;51.77;100092.59;5045880;28;20232;-70
2023/09/12 06:36:07;;;;;;;18.85;12.73;;;;;;;25.15;50.33;100091.69;5052564;28;20657;-71
2023/09/12 06:38:35;;;;;;;17.67;12.73;;;;;;;25.48;48.93;100089.28;5044143;28;20214;-70
2023/09/12 06:41:04;;;;;;;21.65;13.05;;;;;;;25.76;47.99;100092.50;5046313;28;20222;-70
2023/09/12 06:43:33;;;;;;;16.15;11.88;;;;;;;25.95;47.11;100084.94;5052065;28;20202;-70
2023/09/12 06:46:01;;;;;;;17.20;12.35;;;;;;;26.13;46.40;100095.06;5051775;28;20202;-71
2023/09/12 06:48:29;;;;;;;15.65;10.65;;;;;;;26.27;45.78;100094.88;5037801;28;20198;-71
2023/09/12 06:50:57;;;;;;;13.85;11.32;;;;;;;26.18;45.78;100093.78;5052432;28;20217;-71
2023/09/12 06:53:25;;;;;;;15.10;12.00;;;;;;;25.90;46.04;100097.66;5048632;28;20210;-68
2023/09/12 06:55:53;;;;;;;12.98;10.95;;;;;;;25.86;46.25;100093.56;5051698;28;20217;-70
2023/09/12 06:58:23;;;;;;;19.33;11.55;;;;;;;26.04;46.43;100095.78;5051700;28;20297;-70
2023/09/12 07:00:51;;;;;;;16.88;11.07;;;;;;;26.28;46.11;100091.25;5051519;28;20304;-69
2023/09/12 07:03:19;;;;;;;13.60;10.57;;;;;;;26.54;45.05;100093.75;5051510;28;20300;-71
2023/09/12 07:05:48;;;;;;;12.35;10.65;;;;;;;26.83;44.55;100100.22;5051545;28;20212;-71
2023/09/12 07:08:16;;;;;;;19.20;10.25;;;;;;;27.08;43.59;100103.59;5050918;28;20220;-70
2023/09/12 07:10:46;;;;;;;16.33;10.07;;;;;;;27.27;43.13;100095.91;5036983;28;20324;-72
2023/09/12 07:13:14;;;;;;;15.90;10.77;;;;;;;27.47;42.65;100099.59;5045034;28;20728;-71
2023/09/12 07:15:44;;;;;;;14.70;10.38;;;;;;;27.68;42.37;100097.81;5045344;28;20293;-70
2023/09/12 07:18:12;;;;;;;15.10;11.02;;;;;;;27.91;41.62;100106.56;5043655;28;20198;-70
2023/09/12 07:20:40;;;;;;;16.38;10.77;;;;;;;28.17;41.66;100092.94;5050359;28;20232;-71
2023/09/12 07:23:09;;;;;;;12.93;11.02;;;;;;;28.44;41.16;100095.06;5047206;28;20198;-69
2023/09/12 07:25:40;;;;;;;18.05;12.93;;;;;;;28.68;40.63;100099.22;5037452;28;20238;-69
2023/09/12 07:28:08;;;;;;;16.40;11.05;;;;;;;28.87;39.94;100096.69;5029854;28;20203;-70
2023/09/12 07:30:37;;;;;;;12.40;10.18;;;;;;;29.12;40.12;100095.38;5047461;28;20252;-70
2023/09/12 07:33:07;;;;;;;15.77;10.95;;;;;;;29.34;39.43;100087.16;5044514;28;20551;-70
2023/09/12 07:35:35;;;;;;;16.63;10.38;;;;;;;29.55;38.67;100091.53;5051091;28;20285;-69
2023/09/12 07:38:04;;;;;;;16.85;10.63;;;;;;;29.69;38.21;100093.81;5051167;28;20594;-69
2023/09/12 07:40:32;;;;;;;17.02;10.07;;;;;;;29.87;37.63;100098.44;5050971;28;20554;-72
2023/09/12 07:43:00;;;;;;;13.45;10.48;;;;;;;30.08;37.82;100093.78;5050624;28;20206;-71
2023/09/12 07:45:29;;;;;;;14.70;10.25;;;;;;;30.27;37.21;100093.78;5042086;28;20207;-70
2023/09/12 07:47:57;;;;;;;19.77;11.43;;;;;;;30.40;36.63;100098.78;5032542;28;20673;-70
2023/09/12 07:50:30;;;;;;;17.90;10.30;;;;;;;30.35;36.40;100089.59;5051040;28;20531;-70
2023/09/12 07:52:58;;;;;;;17.63;9.80;;;;;;;30.45;36.49;100098.34;5050841;28;20252;-71
2023/09/12 07:55:30;;;;;;;12.55;9.63;;;;;;;30.61;35.87;100098.59;5050834;28;20259;-69
2023/09/12 07:57:58;;;;;;;13.45;9.20;;;;;;;30.86;36.20;100097.13;5037376;28;20206;-70
2023/09/12 08:00:27;;;;;;;10.20;8.52;;;;;;;31.08;35.14;100092.38;5034905;28;20293;-70
2023/09/12 08:02:55;;;;;;;12.07;8.57;;;;;;;31.14;34.67;100097.13;5050855;28;20206;-70
2023/09/12 08:05:24;;;;;;;12.52;8.98;;;;;;;31.09;34.12;100097.56;5050925;28;20247;-71
2023/09/12 08:07:53;;;;;;;16.70;8.65;;;;;;;31.11;34.16;100094.75;5050795;28;20217;-69
2023/09/12 08:10:21;;;;;;;12.57;8.85;;;;;;;31.32;34.56;100083.88;5036966;28;20202;-69
2023/09/12 08:12:49;;;;;;;16.27;9.45;;;;;;;31.58;34.07;100091.94;5042227;28;20284;-69
2023/09/12 08:15:18;;;;;;;12.32;9.27;;;;;;;31.94;33.70;100100.78;5051207;28;20649;-69
2023/09/12 08:17:51;;;;;;;15.52;8.82;;;;;;;32.13;33.55;100095.25;5050686;28;20292;-69
2023/09/12 08:20:20;;;;;;;14.93;9.15;;;;;;;32.21;33.12;100097.16;5051164;28;20589;-70
2023/09/12 08:22:49;;;;;;;21.73;9.15;;;;;;;32.34;33.05;100086.09;5050934;28;20233;-70
2023/09/12 08:25:19;;;;;;;11.15;7.63;;;;;;;32.58;32.58;100093.41;5036134;28;20702;-69
2023/09/12 08:27:47;;;;;;;13.40;7.75;;;;;;;32.82;31.47;100092.69;5045087;28;20205;-71
2023/09/12 08:30:17;;;;;;;11.00;7.45;;;;;;;33.08;31.13;100090.81;5045655;28;20203;-68
2023/09/12 08:32:45;;;;;;;10.38;7.45;;;;;;;33.28;30.43;100093.19;5046105;28;20218;-68
2023/09/12 08:35:14;;;;;;;11.90;6.95;;;;;;;33.47;29.86;100087.59;5054052;28;20202;-70
2023/09/12 08:37:43;;;;;;;12.25;7.85;;;;;;;33.91;29.82;100092.63;5054014;28;20292;-71
2023/09/12 08:40:12;;;;;;;9.32;8.38;;;;;;;34.06;29.14;100090.13;5046606;28;20222;-70
2023/09/12 08:42:44;;;;;;;13.00;7.95;;;;;;;34.33;29.28;100089.78;5047681;28;20238;-69
2023/09/12 08:45:14;;;;;;;10.98;7.25;;;;;;;34.88;28.00;100092.66;5027509;28;20209;-70
2023/09/12 08:47:44;;;;;;;9.02;7.85;;;;;;;35.28;27.50;100091.63;5040836;28;20203;-70
2023/09/12 08:50:16;;;;;;;9.73;7.18;;;;;;;35.53;26.03;100100.34;5040022;28;20284;-68
2023/09/12 08:52:46;;;;;;;12.75;7.82;;;;;;;35.70;26.38;100093.88;5053985;28;20285;-71
2023/09/12 08:55:35;;;;;;;8.60;7.75;;;;;;;35.83;26.28;100090.59;5021954;28;20264;-70
2023/09/12 08:58:06;;;;;;;13.05;7.22;;;;;;;36.00;25.80;100088.63;5048292;28;20259;-68
2023/09/12 09:00:37;;;;;;;8.65;7.32;;;;;;;35.91;26.16;100090.53;5052478;28;20659;-72
2023/09/12 09:03:06;;;;;;;10.52;7.35;;;;;;;35.66;26.49;100089.88;5039961;28;20218;-72
2023/09/12 09:05:37;;;;;;;9.77;8.20;;;;;;;35.78;26.50;100092.97;5039967;28;20260;-69
2023/09/12 09:08:07;;;;;;;10.73;7.68;;;;;;;35.71;26.31;100087.47;5053757;28;20244;-69
2023/09/12 09:10:35;;;;;;;9.05;7.07;;;;;;;35.72;26.28;100088.34;5048279;28;20719;-70
2023/09/12 09:13:19;;;;;;;11.93;7.45;;;;;;;35.66;26.02;100083.69;5047802;28;20248;-69
2023/09/12 09:15:47;;;;;;;10.32;7.72;;;;;;;35.55;26.34;100077.72;5039926;28;20237;-70
2023/09/12 09:18:16;;;;;;;9.60;6.72;;;;;;;35.27;26.71;100084.59;5053477;28;20210;-70
2023/09/12 09:20:49;;;;;;;9.07;6.72;;;;;;;35.03;27.20;100089.09;5053286;28;20573;-71
2023/09/12 09:23:17;;;;;;;7.30;6.57;;;;;;;34.72;27.60;100085.50;5053526;28;20245;-71
2023/09/12 09:25:53;;;;;;;13.68;7.10;;;;;;;34.43;27.62;100081.56;5038891;28;20720;-68
2023/09/12 09:28:24;;;;;;;11.77;6.70;;;;;;;34.13;28.01;100080.44;5044273;28;20276;-70
2023/09/12 09:30:54;;;;;;;8.75;6.57;;;;;;;33.94;27.54;100073.56;5047853;28;20251;-69
2023/09/12 09:33:23;;;;;;;8.65;7.15;;;;;;;33.72;28.12;100079.59;5046405;28;20198;-68
2023/09/12 09:35:53;;;;;;;10.15;7.32;;;;;;;33.35;28.68;100078.19;5053324;28;20198;-70
2023/09/12 09:38:23;;;;;;;8.13;6.90;;;;;;;33.16;29.43;100080.16;5052983;28;20259;-70
2023/09/12 09:40:51;;;;;;;7.82;6.63;;;;;;;33.10;29.36;100078.16;5053062;28;20705;-72
2023/09/12 09:43:22;;;;;;;9.30;7.10;;;;;;;33.08;29.51;100074.81;5052657;28;20223;-69
2023/09/12 09:45:50;;;;;;;11.98;6.22;;;;;;;32.92;29.35;100074.72;5052921;28;20289;-70
2023/09/12 09:48:19;;;;;;;13.57;6.70;;;;;;;32.81;30.46;100075.00;5052764;28;20212;-71
2023/09/12 09:50:48;;;;;;;7.32;6.63;;;;;;;32.81;29.54;100080.34;5052798;28;20578;-70
2023/09/12 09:53:16;;;;;;;7.70;6.88;;;;;;;32.69;28.21;100079.78;5049818;28;20202;-68
2023/09/12 09:55:44;;;;;;;7.20;6.30;;;;;;;32.57;29.04;100073.91;5042428;28;20795;-69
2023/09/12 09:58:17;;;;;;;10.50;7.10;;;;;;;32.53;29.24;100069.88;5049942;28;20689;-72
2023/09/12 10:00:48;;;;;;;7.45;6.72;;;;;;;32.55;28.38;100081.25;5044197;28;20645;-69
2023/09/12 10:03:20;;;;;;;7.40;6.70;;;;;;;32.36;27.95;100074.25;5042479;28;20225;-68
2023/09/12 10:05:52;;;;;;;8.60;7.25;;;;;;;32.47;28.22;100070.50;5046951;28;20232;-70
2023/09/12 10:08:22;;;;;;;9.07;7.03;;;;;;;32.56;27.54;100074.91;5045556;28;20206;-69
2023/09/12 10:10:51;;;;;;;7.65;6.82;;;;;;;32.69;27.72;100069.94;5050280;28;20553;-69
2023/09/12 10:13:21;;;;;;;8.10;6.95;;;;;;;32.71;27.98;100065.28;5046536;28;20202;-67
2023/09/12 10:15:52;;;;;;;9.90;6.65;;;;;;;32.85;27.57;100068.38;5052355;28;20224;-71
2023/09/12 10:18:25;;;;;;;8.68;7.65;;;;;;;33.13;27.29;100055.63;5052290;28;20236;-69
2023/09/12 10:21:05;;;;;;;9.35;6.70;;;;;;;33.59;26.06;100062.25;5052396;28;20281;-69
2023/09/12 10:23:41;;;;;;;7.53;6.82;;;;;;;33.90;24.61;100054.38;5051901;28;20730;-66
2023/09/12 10:26:12;;;;;;;9.50;6.95;;;;;;;34.13;25.25;100053.69;5040343;28;20194;-65
2023/09/12 10:28:42;;;;;;;7.18;6.50;;;;;;;34.35;23.04;100063.66;5051876;28;20202;-66
2023/09/12 10:31:14;;;;;;;7.93;6.72;;;;;;;34.64;23.33;100053.41;5052015;28;20209;-65
2023/09/12 10:33:44;;;;;;;7.32;6.57;;;;;;;35.08;23.34;100057.25;5045144;28;20290;-67
2023/09/12 10:36:15;;;;;;;7.18;6.45;;;;;;;35.67;22.77;100056.69;5051896;28;20255;-66
2023/09/12 10:38:44;;;;;;;9.52;7.20;;;;;;;36.34;21.95;100055.06;5042594;28;20206;-65
2023/09/12 10:41:14;;;;;;;8.30;6.57;;;;;;;36.80;21.02;100044.16;5048036;28;20636;-66
2023/09/12 10:43:46;;;;;;;7.50;6.90;;;;;;;36.80;20.29;100050.34;5043565;28;20227;-65
2023/09/12 10:46:16;;;;;;;6.93;6.32;;;;;;;36.49;19.83;100056.78;5031627;28;20207;-66
2023/09/12 10:48:44;;;;;;;8.10;6.75;;;;;;;36.36;20.49;100043.13;5039640;28;20702;-67
2023/09/12 10:51:14;;;;;;;7.85;6.63;;;;;;;36.26;20.20;100048.78;5051349;28;20210;-68
2023/09/12 10:53:48;;;;;;;9.73;7.18;;;;;;;36.27;20.22;100044.22;5051065;28;20271;-65
2023/09/12 10:56:19;;;;;;;8.52;6.95;;;;;;;36.46;21.12;100037.50;5048174;28;20657;-65
2023/09/12 10:59:13;;;;;;;7.20;6.50;;;;;;;36.24;21.46;100044.63;5044996;28;20576;-65
2023/09/12 11:01:45;;;;;;;8.25;6.80;;;;;;;35.43;21.34;100041.63;5047631;28;20616;-65
2023/09/12 11:04:38;;;;;;;7.85;6.90;;;;;;;34.29;23.13;100042.97;5051284;28;20260;-65
2023/09/12 11:07:33;;;;;;;12.35;6.72;;;;;;;33.40;24.83;100047.34;5051033;28;20206;-65
2023/09/12 11:10:21;;;;;;;7.63;6.85;;;;;;;33.85;24.53;100045.19;5044083;28;20555;-65
2023/09/12 11:12:50;;;;;;;10.40;7.47;;;;;;;34.60;23.33;100039.56;5033151;28;20224;-64
2023/09/12 11:15:21;;;;;;;8.65;7.13;;;;;;;35.23;23.68;100029.69;5045292;28;20271;-66
2023/09/12 11:18:00;;;;;;;10.05;7.40;;;;;;;35.58;23.23;100038.19;5040258;28;20205;-65
2023/09/12 11:20:54;;;;;;;9.82;7.28;;;;;;;35.67;22.57;100037.09;5036888;28;20205;-64
2023/09/12 11:23:22;;;;;;;12.70;6.57;;;;;;;34.82;23.54;100033.41;5050908;28;20308;-65